Time;durP1;ratioP1;P1;durP2;ratioP2;P2;SDS_P1;SDS_P2;PMS_P1;PMS_P2;Temp;Humidity;BMP_temperature;BMP_pressure;BME280_temperature;BME280_humidity;BME280_pressure;Samples;Min_cycle;Max_cycle;Signal;HPM_P1;HPM_P2
2022/07/10 00:01:06;;;;;;;2.45;2.25;;;;;;;19.25;79.53;99305.13;4944655;28;103573;-59
2022/07/10 00:03:34;;;;;;;3.15;2.40;;;;;;;19.26;78.70;99300.59;4943018;28;102759;-60
2022/07/10 00:06:02;;;;;;;2.85;2.63;;;;;;;19.21;79.06;99297.53;4943736;28;102846;-60
2022/07/10 00:08:30;;;;;;;2.20;2.08;;;;;;;19.18;79.36;99303.19;4942021;28;103474;-60
2022/07/10 00:10:59;;;;;;;4.70;4.20;;;;;;;19.00;80.89;99301.31;4942476;28;103367;-59
2022/07/10 00:13:27;;;;;;;3.17;2.97;;;;;;;19.58;78.63;99291.09;4939719;28;103041;-60
2022/07/10 00:15:55;;;;;;;2.40;2.20;;;;;;;19.25;79.62;99285.53;4957921;28;102694;-60
2022/07/10 00:18:23;;;;;;;2.70;2.50;;;;;;;19.18;79.59;99293.31;4922536;28;104338;-59
2022/07/10 00:20:51;;;;;;;2.50;2.30;;;;;;;19.16;79.09;99294.47;4938506;28;103272;-59
2022/07/10 00:23:19;;;;;;;3.35;3.13;;;;;;;19.00;79.98;99289.78;4939370;28;102599;-59
2022/07/10 00:25:47;;;;;;;4.07;3.67;;;;;;;18.86;80.74;99283.06;4926249;28;102816;-59
2022/07/10 00:28:17;;;;;;;2.88;2.60;;;;;;;18.93;79.50;99288.66;4940901;28;103233;-59
2022/07/10 00:30:45;;;;;;;4.05;3.65;;;;;;;18.96;80.09;99286.53;4939235;28;103229;-59
2022/07/10 00:33:13;;;;;;;2.72;2.25;;;;;;;18.85;80.44;99281.41;4939325;28;103845;-60
2022/07/10 00:35:40;;;;;;;3.75;3.35;;;;;;;18.92;80.20;99285.16;4940406;28;102679;-59
2022/07/10 00:38:09;;;;;;;3.13;2.83;;;;;;;18.95;79.64;99284.84;4941263;28;103268;-59
2022/07/10 00:40:39;;;;;;;2.60;2.40;;;;;;;18.97;79.28;99285.56;4939810;28;103213;-59
2022/07/10 00:43:09;;;;;;;2.08;1.88;;;;;;;19.04;78.06;99286.63;4941876;28;102626;-59
2022/07/10 00:45:38;;;;;;;3.80;3.47;;;;;;;19.49;78.31;99292.00;4940793;28;102697;-59
2022/07/10 00:48:06;;;;;;;3.05;2.85;;;;;;;19.77;76.19;99290.06;4919188;28;103184;-60
2022/07/10 00:50:34;;;;;;;3.47;3.17;;;;;;;19.85;76.10;99287.44;4939171;28;103163;-59
2022/07/10 00:53:03;;;;;;;3.53;3.22;;;;;;;19.83;76.71;99286.78;4938977;28;102854;-59
2022/07/10 00:55:33;;;;;;;3.25;2.95;;;;;;;19.93;75.69;99284.81;4939486;28;102770;-60
2022/07/10 00:58:01;;;;;;;3.05;2.85;;;;;;;20.03;75.49;99282.06;4940565;28;103466;-59
2022/07/10 01:00:29;;;;;;;2.63;2.42;;;;;;;20.17;74.41;99285.03;4939279;28;103257;-59
2022/07/10 01:02:59;;;;;;;2.58;2.38;;;;;;;20.21;73.85;99283.69;4919138;28;102818;-60
2022/07/10 01:05:27;;;;;;;2.80;2.60;;;;;;;20.26;73.12;99279.75;4941267;28;102783;-60
2022/07/10 01:07:55;;;;;;;3.38;3.08;;;;;;;20.28;73.70;99283.94;4943202;28;103090;-60
2022/07/10 01:10:25;;;;;;;2.58;2.33;;;;;;;20.31;72.48;99277.41;4921999;28;103178;-60
2022/07/10 01:12:54;;;;;;;2.95;2.65;;;;;;;20.32;73.30;99281.81;4939729;28;102666;-60
2022/07/10 01:15:22;;;;;;;4.00;3.70;;;;;;;20.30;73.01;99273.88;4938557;28;102777;-60
2022/07/10 01:17:53;;;;;;;3.97;3.67;;;;;;;20.29;72.62;99274.06;4937439;28;103278;-60
2022/07/10 01:20:31;;;;;;;3.63;3.33;;;;;;;20.20;72.75;99276.66;4936108;28;103051;-59
2022/07/10 01:23:00;;;;;;;3.17;2.93;;;;;;;20.31;72.00;99278.28;4938183;28;102928;-60
2022/07/10 01:25:28;;;;;;;3.53;3.22;;;;;;;20.32;72.40;99276.44;4940973;28;102807;-60
2022/07/10 01:27:56;;;;;;;4.13;3.67;;;;;;;20.23;72.41;99271.00;4938025;28;104072;-59
2022/07/10 01:30:24;;;;;;;3.13;2.88;;;;;;;20.21;72.53;99269.44;4933825;28;103481;-61
2022/07/10 01:32:53;;;;;;;3.63;3.33;;;;;;;20.15;72.68;99273.59;4938427;28;102702;-61
2022/07/10 01:35:21;;;;;;;3.00;2.80;;;;;;;20.22;72.10;99273.81;4939126;28;102695;-61
2022/07/10 01:37:49;;;;;;;2.90;2.70;;;;;;;20.22;71.86;99274.66;4940218;28;103289;-60
2022/07/10 01:40:18;;;;;;;3.25;2.95;;;;;;;20.14;71.97;99268.41;4941103;28;103220;-60
2022/07/10 01:42:47;;;;;;;2.90;2.70;;;;;;;20.16;72.20;99263.72;4939083;28;102666;-61
2022/07/10 01:45:18;;;;;;;3.47;3.17;;;;;;;20.05;72.43;99261.28;4938907;28;103046;-60
2022/07/10 01:47:46;;;;;;;3.90;3.60;;;;;;;19.96;73.13;99268.44;4937557;28;103296;-61
2022/07/10 01:50:14;;;;;;;3.55;3.25;;;;;;;19.95;72.73;99266.75;4941544;28;103241;-60
2022/07/10 01:52:42;;;;;;;3.38;3.08;;;;;;;19.91;72.61;99267.22;4939466;28;102739;-61
2022/07/10 01:55:10;;;;;;;3.90;3.60;;;;;;;19.78;73.16;99262.28;4936098;28;102837;-61
2022/07/10 01:57:39;;;;;;;4.13;3.80;;;;;;;19.75;73.45;99265.25;4937614;28;103687;-61
2022/07/10 02:00:11;;;;;;;3.35;3.05;;;;;;;19.80;72.63;99268.31;4919319;28;103974;-61
2022/07/10 02:04:40;;;;;;;4.20;3.80;;;;;;;19.74;72.85;99268.94;4921208;28;102825;-58
2022/07/10 02:05:29;;;;;;;4.80;4.40;;;;;;;19.43;73.08;99281.88;4939269;28;102681;-58
2022/07/10 02:07:57;;;;;;;4.17;3.83;;;;;;;19.59;73.05;99273.16;4940594;28;103268;-59
2022/07/10 02:10:25;;;;;;;5.15;4.75;;;;;;;19.54;73.11;99273.63;4936593;28;103197;-59
2022/07/10 02:12:54;;;;;;;4.10;3.80;;;;;;;19.66;72.40;99276.91;4935932;28;102761;-59
2022/07/10 02:15:22;;;;;;;4.63;4.22;;;;;;;19.49;73.52;99269.72;4939619;28;102735;-59
2022/07/10 02:17:50;;;;;;;4.70;4.15;;;;;;;19.57;73.33;99277.81;4936213;28;104173;-59
2022/07/10 02:20:20;;;;;;;6.05;5.55;;;;;;;19.44;74.57;99277.38;4942245;28;103193;-59
2022/07/10 02:22:48;;;;;;;7.50;6.80;;;;;;;19.15;75.71;99279.38;4921030;28;102834;-59
2022/07/10 02:25:16;;;;;;;5.00;4.60;;;;;;;19.44;74.88;99272.88;4940346;28;103893;-59
2022/07/10 02:27:44;;;;;;;6.10;5.60;;;;;;;19.45;74.85;99273.72;4938926;28;105220;-59
2022/07/10 02:30:17;;;;;;;9.20;8.40;;;;;;;18.89;78.07;99288.13;4935496;28;103048;-59
2022/07/10 02:32:45;;;;;;;7.57;6.88;;;;;;;19.04;77.00;99286.63;4939143;28;102647;-59
2022/07/10 02:35:13;;;;;;;8.15;7.53;;;;;;;18.99;77.72;99283.56;4939328;28;102632;-59
2022/07/10 02:37:40;;;;;;;8.23;7.53;;;;;;;18.94;78.06;99290.38;4919200;28;103275;-59
2022/07/10 02:40:11;;;;;;;10.80;9.90;;;;;;;18.42;80.18;99294.50;4939087;28;103258;-59
2022/07/10 02:42:39;;;;;;;9.95;9.05;;;;;;;18.50;80.96;99291.97;4921532;28;102892;-59
2022/07/10 02:45:08;;;;;;;9.50;8.70;;;;;;;18.61;79.25;99291.78;4941382;28;102914;-59
2022/07/10 02:48:30;;;;;;;8.25;7.57;;;;;;;18.76;79.23;99290.31;4938466;28;104152;-59
2022/07/10 02:51:28;;;;;;;7.80;7.18;;;;;;;18.91;78.04;99302.22;4920184;28;103471;-59
2022/07/10 02:54:09;;;;;;;9.50;8.63;;;;;;;18.79;78.65;99298.03;4944239;28;102676;-59
2022/07/10 02:56:37;;;;;;;6.75;6.20;;;;;;;19.01;76.98;99297.66;4920909;28;102857;-59
2022/07/10 02:59:08;;;;;;;7.28;6.57;;;;;;;19.03;76.54;99301.00;4939952;28;104162;-59
2022/07/10 03:01:36;;;;;;;6.35;5.85;;;;;;;19.15;75.91;99298.13;4945374;28;104392;-59
2022/07/10 03:04:04;;;;;;;7.30;6.80;;;;;;;19.15;76.03;99301.66;4943373;28;102908;-58
2022/07/10 03:06:33;;;;;;;7.77;7.07;;;;;;;19.22;75.37;99304.56;4941732;28;103911;-59
2022/07/10 03:09:02;;;;;;;6.63;6.10;;;;;;;19.19;75.92;99305.72;4939159;28;103268;-58
2022/07/10 03:11:30;;;;;;;6.43;5.93;;;;;;;19.06;75.91;99306.06;4939679;28;103212;-59
2022/07/10 03:13:58;;;;;;;6.30;5.80;;;;;;;19.01;76.47;99303.00;4940568;28;102993;-59
2022/07/10 03:16:26;;;;;;;8.73;7.95;;;;;;;19.03;76.18;99301.00;4925658;28;102746;-58
2022/07/10 03:18:54;;;;;;;6.20;5.70;;;;;;;19.07;75.21;99299.72;4915756;28;104118;-59
2022/07/10 03:21:22;;;;;;;7.63;7.00;;;;;;;19.07;75.36;99291.69;4937107;28;103516;-59
2022/07/10 03:23:51;;;;;;;4.72;4.38;;;;;;;19.11;74.18;99300.28;4919729;28;102782;-59
2022/07/10 03:26:19;;;;;;;5.15;4.75;;;;;;;19.16;74.15;99297.13;4937177;28;104010;-59
2022/07/10 03:28:47;;;;;;;7.70;7.05;;;;;;;19.08;75.11;99298.75;4935384;28;104165;-59
2022/07/10 03:31:15;;;;;;;7.93;7.32;;;;;;;19.02;75.45;99301.16;4937668;28;103247;-59
2022/07/10 03:33:43;;;;;;;7.32;6.68;;;;;;;18.84;76.59;99310.97;4934765;28;102720;-59
2022/07/10 03:36:11;;;;;;;5.40;5.00;;;;;;;18.99;75.29;99306.81;4940444;28;104442;-59
2022/07/10 03:38:45;;;;;;;6.07;5.68;;;;;;;18.99;75.64;99313.03;4937733;28;103322;-59
2022/07/10 03:41:15;;;;;;;7.07;6.50;;;;;;;18.98;75.14;99305.97;4941532;28;103370;-59
2022/07/10 03:43:42;;;;;;;7.33;6.73;;;;;;;18.96;75.74;99302.59;4933519;28;103040;-59
2022/07/10 03:46:10;;;;;;;6.82;6.32;;;;;;;18.95;75.78;99303.59;4936287;28;104050;-59
2022/07/10 03:48:39;;;;;;;5.82;5.32;;;;;;;18.97;75.44;99306.97;4933684;28;103255;-58
2022/07/10 03:51:07;;;;;;;5.88;5.38;;;;;;;19.06;74.58;99300.72;4938312;28;103234;-59
2022/07/10 03:53:36;;;;;;;6.73;6.17;;;;;;;19.11;74.83;99303.78;4942833;28;102920;-59
2022/07/10 03:56:04;;;;;;;6.20;5.70;;;;;;;19.12;74.97;99304.63;4942047;28;102707;-59
2022/07/10 03:58:35;;;;;;;7.72;7.13;;;;;;;18.90;76.39;99303.19;4941827;28;104290;-58
2022/07/10 04:01:03;;;;;;;9.25;8.35;;;;;;;18.60;78.31;99303.47;4936607;28;103298;-59
2022/07/10 04:03:31;;;;;;;8.70;7.90;;;;;;;18.52;78.78;99306.91;4931607;28;102870;-59
2022/07/10 04:05:59;;;;;;;9.13;8.30;;;;;;;18.34;78.97;99310.44;4936552;28;102983;-58
2022/07/10 04:08:27;;;;;;;8.83;7.93;;;;;;;18.31;80.14;99311.56;4929805;28;103585;-59
2022/07/10 04:10:57;;;;;;;6.57;5.93;;;;;;;18.36;80.73;99311.13;4929057;28;103579;-58
2022/07/10 04:13:25;;;;;;;7.45;6.85;;;;;;;18.49;79.56;99311.69;4932410;28;102647;-59
2022/07/10 04:15:54;;;;;;;7.97;7.28;;;;;;;18.52;79.18;99300.69;4934371;28;102792;-59
2022/07/10 04:18:22;;;;;;;8.52;7.72;;;;;;;18.46;79.58;99307.44;4941819;28;103215;-59
2022/07/10 04:20:50;;;;;;;8.63;7.93;;;;;;;18.12;81.58;99313.44;4935006;28;102919;-59
2022/07/10 04:23:18;;;;;;;8.05;7.28;;;;;;;18.31;81.16;99308.03;4935610;28;102664;-59
2022/07/10 04:25:46;;;;;;;9.63;8.73;;;;;;;17.82;82.64;99317.97;4933034;28;102748;-59
2022/07/10 04:28:14;;;;;;;9.45;8.55;;;;;;;17.78;83.35;99311.22;4935587;28;104036;-58
2022/07/10 04:30:42;;;;;;;9.77;8.90;;;;;;;17.52;84.40;99318.06;4933049;28;103243;-59
2022/07/10 04:33:11;;;;;;;8.93;8.03;;;;;;;17.80;84.00;99314.59;4930028;28;103040;-58
2022/07/10 04:35:39;;;;;;;9.00;8.20;;;;;;;17.71;84.20;99318.13;4934433;28;102974;-59
2022/07/10 04:38:09;;;;;;;9.07;8.13;;;;;;;17.56;84.23;99310.66;4931846;28;103422;-58
2022/07/10 04:40:37;;;;;;;9.40;8.57;;;;;;;17.40;85.04;99317.38;4930909;28;103922;-58
2022/07/10 04:43:05;;;;;;;9.27;8.48;;;;;;;17.43;84.96;99310.94;4937411;28;102677;-59
2022/07/10 04:45:33;;;;;;;8.02;7.38;;;;;;;17.58;84.97;99311.38;4938921;28;102803;-58
2022/07/10 04:48:01;;;;;;;9.17;8.27;;;;;;;17.51;84.36;99313.75;4942770;28;103678;-59
2022/07/10 04:50:30;;;;;;;8.75;7.82;;;;;;;17.58;83.75;99311.38;4939634;28;103216;-59
2022/07/10 04:52:58;;;;;;;7.87;7.23;;;;;;;17.57;84.04;99318.53;4922568;28;102993;-58
2022/07/10 04:55:29;;;;;;;9.10;7.78;;;;;;;17.30;85.83;99321.00;4942593;28;102691;-59
2022/07/10 04:57:57;;;;;;;8.73;7.90;;;;;;;17.01;87.54;99322.78;4940133;28;103309;-58
2022/07/10 05:00:25;;;;;;;7.00;6.40;;;;;;;17.47;85.63;99322.16;4941080;28;103251;-59
2022/07/10 05:02:53;;;;;;;7.30;6.68;;;;;;;17.12;85.51;99317.34;4943745;28;102658;-58
2022/07/10 05:05:21;;;;;;;7.07;6.47;;;;;;;17.09;85.62;99325.63;4944019;28;103071;-59
2022/07/10 05:07:50;;;;;;;6.45;5.85;;;;;;;17.42;85.24;99324.41;4938606;28;104062;-59
2022/07/10 05:10:18;;;;;;;6.28;5.50;;;;;;;17.35;84.57;99324.09;4939971;28;103219;-59
2022/07/10 05:12:46;;;;;;;6.22;5.63;;;;;;;17.54;83.60;99324.19;4940755;28;102561;-58
2022/07/10 05:15:13;;;;;;;5.20;4.70;;;;;;;17.80;81.88;99330.63;4941717;28;103831;-58
2022/07/10 05:17:41;;;;;;;5.05;4.55;;;;;;;17.86;81.72;99330.06;4938339;28;103301;-58
2022/07/10 05:20:12;;;;;;;5.57;5.07;;;;;;;17.75;80.81;99327.53;4939439;28;103291;-59
2022/07/10 05:22:40;;;;;;;5.97;5.20;;;;;;;17.64;81.33;99334.84;4939792;28;102663;-59
2022/07/10 05:25:09;;;;;;;4.30;3.80;;;;;;;17.91;80.11;99333.16;4924126;28;103400;-59
2022/07/10 05:27:37;;;;;;;4.47;4.07;;;;;;;17.91;79.58;99335.84;4941681;28;104022;-60
2022/07/10 05:30:06;;;;;;;4.32;3.65;;;;;;;17.73;78.92;99334.88;4919998;28;103388;-59
2022/07/10 05:32:34;;;;;;;4.47;3.87;;;;;;;17.59;80.48;99337.09;4940574;28;102942;-59
2022/07/10 05:35:02;;;;;;;3.70;3.40;;;;;;;17.52;81.40;99336.78;4938711;28;102973;-59
2022/07/10 05:37:30;;;;;;;4.15;3.65;;;;;;;17.80;79.82;99344.00;4940513;28;103770;-60
2022/07/10 05:39:58;;;;;;;3.85;3.42;;;;;;;17.60;78.89;99344.97;4941987;28;103254;-59
2022/07/10 05:42:27;;;;;;;3.63;3.30;;;;;;;17.51;79.16;99348.47;4939621;28;103873;-59
2022/07/10 05:44:55;;;;;;;3.65;3.03;;;;;;;17.72;78.56;99349.19;4940449;28;103006;-59
2022/07/10 05:47:23;;;;;;;3.83;3.25;;;;;;;17.76;78.19;99349.78;4940321;28;103284;-59
2022/07/10 05:49:51;;;;;;;3.97;2.83;;;;;;;17.48;77.28;99348.75;4937298;28;103543;-60
2022/07/10 05:52:19;;;;;;;3.55;2.72;;;;;;;17.52;77.83;99350.13;4939248;28;102833;-59
2022/07/10 05:54:47;;;;;;;4.32;2.92;;;;;;;17.51;77.66;99358.31;4938645;28;102879;-60
2022/07/10 05:57:15;;;;;;;3.30;2.70;;;;;;;17.59;78.14;99366.50;4925586;28;102993;-59
2022/07/10 05:59:44;;;;;;;5.28;3.35;;;;;;;17.62;76.34;99375.09;4923904;28;104323;-59
2022/07/10 06:02:13;;;;;;;2.60;2.40;;;;;;;17.80;77.22;99362.69;4941898;28;102638;-59
2022/07/10 06:04:41;;;;;;;3.10;2.63;;;;;;;17.78;76.48;99370.03;4941240;28;102741;-59
2022/07/10 06:07:09;;;;;;;4.35;3.17;;;;;;;17.49;77.58;99371.78;4923097;28;104677;-58
2022/07/10 06:09:37;;;;;;;4.47;3.00;;;;;;;18.10;75.16;99366.22;4940747;28;103451;-59
2022/07/10 06:12:05;;;;;;;3.00;2.28;;;;;;;18.74;73.10;99364.56;4942229;28;102633;-60
2022/07/10 06:14:33;;;;;;;4.22;3.10;;;;;;;17.74;75.79;99365.94;4941139;28;104149;-59
2022/07/10 06:17:03;;;;;;;4.63;3.30;;;;;;;17.61;75.75;99377.88;4925186;28;104184;-60
2022/07/10 06:19:31;;;;;;;4.28;2.70;;;;;;;17.79;75.97;99366.38;4939966;28;103251;-59
2022/07/10 06:24:44;;;;;;;3.30;2.80;;;;;;;18.00;75.31;99374.25;4937347;28;102905;-59
2022/07/10 06:27:13;;;;;;;3.00;2.50;;;;;;;18.07;74.58;99379.88;4938630;28;103300;-59
2022/07/10 06:29:43;;;;;;;3.30;2.60;;;;;;;17.80;74.06;99370.72;4935358;28;103204;-59
2022/07/10 06:32:12;;;;;;;3.50;2.67;;;;;;;17.37;75.31;99375.56;4938998;28;102758;-59
2022/07/10 06:34:42;;;;;;;5.85;2.67;;;;;;;17.52;74.04;99379.53;4942907;28;102819;-59
2022/07/10 06:37:10;;;;;;;3.33;2.47;;;;;;;17.98;72.72;99380.72;4939690;28;103257;-59
2022/07/10 06:39:38;;;;;;;3.17;2.17;;;;;;;17.84;72.97;99382.84;4938722;28;103691;-60
2022/07/10 06:42:07;;;;;;;4.00;2.37;;;;;;;17.40;73.23;99391.31;4935018;28;103013;-59
2022/07/10 06:44:40;;;;;;;2.65;2.00;;;;;;;17.64;72.07;99390.97;4934638;28;102828;-58
2022/07/10 06:50:11;;;;;;;3.93;2.07;;;;;;;17.92;70.95;99391.00;4938985;28;103519;-59
2022/07/10 06:52:48;;;;;;;3.67;2.10;;;;;;;18.07;71.33;99395.91;4939486;28;103040;-59
2022/07/10 06:55:17;;;;;;;3.03;2.27;;;;;;;17.51;71.31;99393.88;4923211;28;104249;-60
2022/07/10 06:57:45;;;;;;;4.38;2.20;;;;;;;17.61;72.77;99408.13;4922342;28;104197;-59
2022/07/10 07:00:13;;;;;;;4.05;2.15;;;;;;;17.72;71.27;99402.66;4941024;28;103348;-59
2022/07/10 07:02:43;;;;;;;2.72;2.33;;;;;;;17.78;70.72;99398.56;4939691;28;102617;-59
2022/07/10 07:05:12;;;;;;;4.32;2.10;;;;;;;17.81;71.04;99399.16;4925581;28;103152;-59
2022/07/10 07:07:40;;;;;;;2.85;1.95;;;;;;;18.34;69.48;99388.84;4940696;28;103373;-59
2022/07/10 07:10:10;;;;;;;2.83;2.20;;;;;;;18.18;69.64;99396.63;4923357;28;103262;-59
2022/07/10 07:12:40;;;;;;;3.80;2.30;;;;;;;17.55;72.07;99400.66;4925329;28;102750;-59
2022/07/10 07:15:10;;;;;;;3.50;2.33;;;;;;;18.01;70.04;99400.00;4940569;28;102794;-60
2022/07/10 07:18:07;;;;;;;3.33;1.70;;;;;;;17.95;67.14;99401.41;4922658;28;103349;-60
2022/07/10 07:23:22;;;;;;;3.83;1.97;;;;;;;17.81;67.34;99401.81;4940702;28;102989;-59
2022/07/10 07:25:50;;;;;;;4.88;1.85;;;;;;;17.23;70.19;99422.19;4941691;28;102670;-59
2022/07/10 07:28:19;;;;;;;2.53;1.60;;;;;;;17.75;68.05;99413.06;4941825;28;103852;-59
2022/07/10 07:30:48;;;;;;;4.57;2.05;;;;;;;17.57;68.70;99420.06;4940291;28;103200;-59
2022/07/10 07:33:18;;;;;;;2.37;1.50;;;;;;;18.04;68.05;99420.25;4943236;28;103217;-59
2022/07/10 07:35:46;;;;;;;3.40;1.70;;;;;;;17.84;68.20;99422.94;4927877;28;102778;-59
2022/07/10 07:38:15;;;;;;;3.40;2.00;;;;;;;17.60;69.04;99419.78;4945780;28;103915;-59
2022/07/10 07:40:43;;;;;;;3.93;1.90;;;;;;;17.53;69.25;99417.78;4944402;28;103268;-59
2022/07/10 07:43:11;;;;;;;3.63;1.93;;;;;;;18.39;67.46;99418.69;4926641;28;102991;-59
2022/07/10 07:45:39;;;;;;;2.63;1.70;;;;;;;19.41;63.62;99412.50;4943985;28;103968;-59
2022/07/10 07:48:09;;;;;;;3.38;1.52;;;;;;;18.99;64.21;99414.78;4943151;28;103016;-59
2022/07/10 07:50:39;;;;;;;3.00;1.38;;;;;;;17.95;67.82;99412.09;4946692;28;103401;-60
2022/07/10 07:53:07;;;;;;;3.28;1.63;;;;;;;17.61;68.34;99415.28;4924998;28;102775;-60
2022/07/10 07:55:35;;;;;;;2.42;1.73;;;;;;;17.13;70.25;99420.44;4944614;28;102610;-60
2022/07/10 07:58:04;;;;;;;2.42;1.60;;;;;;;17.53;69.67;99418.63;4932905;28;103296;-60
2022/07/10 08:00:34;;;;;;;2.35;1.83;;;;;;;17.37;69.14;99418.31;4946303;28;103037;-60
2022/07/10 08:03:02;;;;;;;5.53;1.88;;;;;;;17.63;69.17;99424.00;4942943;28;102710;-60
2022/07/10 08:05:33;;;;;;;1.67;1.45;;;;;;;18.29;67.21;99412.50;4945630;28;102636;-60
2022/07/10 08:08:06;;;;;;;5.43;1.67;;;;;;;18.77;66.42;99408.94;4944346;28;103201;-60
2022/07/10 08:10:34;;;;;;;2.53;1.90;;;;;;;18.91;65.50;99409.31;4926936;28;103334;-60
2022/07/10 08:13:02;;;;;;;2.30;1.50;;;;;;;18.82;63.13;99403.97;4943745;28;103075;-60
2022/07/10 08:15:31;;;;;;;3.17;1.70;;;;;;;19.27;62.90;99404.06;4943705;28;102891;-59
2022/07/10 08:18:00;;;;;;;2.50;1.58;;;;;;;19.45;61.81;99397.78;4943885;28;103792;-59
2022/07/10 08:20:29;;;;;;;2.30;1.60;;;;;;;18.55;63.96;99398.56;4942576;28;103351;-60
2022/07/10 08:22:57;;;;;;;2.57;1.40;;;;;;;18.22;64.14;99406.03;4924675;28;102797;-60
2022/07/10 08:25:29;;;;;;;3.45;1.80;;;;;;;18.19;62.33;99400.16;4942930;28;103299;-60
2022/07/10 08:28:01;;;;;;;3.13;1.37;;;;;;;19.31;59.39;99398.25;4943672;28;103269;-61
2022/07/10 08:30:30;;;;;;;2.75;1.30;;;;;;;19.50;57.68;99392.00;4942857;28;103332;-60
2022/07/10 08:32:58;;;;;;;2.65;1.25;;;;;;;19.75;56.52;99396.63;4942919;28;102695;-59
2022/07/10 08:35:26;;;;;;;3.42;1.23;;;;;;;20.04;56.39;99389.19;4943795;28;103922;-60
2022/07/10 08:37:54;;;;;;;3.57;1.27;;;;;;;20.54;56.51;99383.25;4942665;28;103917;-60
2022/07/10 08:40:23;;;;;;;3.42;1.50;;;;;;;19.24;56.59;99390.97;4926124;28;103227;-60
2022/07/10 08:42:52;;;;;;;2.45;1.20;;;;;;;19.53;57.46;99383.66;4938808;28;102771;-60
2022/07/10 08:45:20;;;;;;;4.38;1.58;;;;;;;19.14;58.53;99388.34;4938742;28;102760;-60
2022/07/10 08:47:48;;;;;;;2.80;1.40;;;;;;;19.79;56.34;99381.09;4929543;28;103224;-60
2022/07/10 08:50:20;;;;;;;3.33;1.30;;;;;;;19.61;57.40;99389.94;4943521;28;103262;-60
2022/07/10 08:52:55;;;;;;;3.60;1.70;;;;;;;20.48;55.63;99381.19;4943026;28;102682;-61
2022/07/10 08:55:25;;;;;;;3.13;1.40;;;;;;;19.02;55.19;99384.19;4941953;28;102675;-60
2022/07/10 08:57:56;;;;;;;2.55;1.40;;;;;;;20.42;53.84;99376.44;4942973;28;103503;-60
2022/07/10 09:00:24;;;;;;;3.05;1.20;;;;;;;21.56;51.01;99384.13;4926375;28;103264;-60
2022/07/10 09:02:54;;;;;;;2.63;1.17;;;;;;;20.83;51.97;99386.44;4943313;28;103195;-60
2022/07/10 09:05:23;;;;;;;2.30;1.25;;;;;;;21.63;51.01;99385.13;4943606;28;103315;-60
2022/07/10 09:07:53;;;;;;;2.97;1.30;;;;;;;20.43;52.25;99381.66;4943118;28;105184;-60
2022/07/10 09:10:22;;;;;;;3.47;1.30;;;;;;;19.93;53.77;99392.09;4943367;28;103297;-60
2022/07/10 09:12:52;;;;;;;4.35;1.40;;;;;;;20.39;52.57;99388.34;4943015;28;102670;-60
2022/07/10 09:15:24;;;;;;;2.78;1.33;;;;;;;20.28;54.28;99390.41;4941251;28;104511;-60
2022/07/10 09:17:56;;;;;;;2.73;1.30;;;;;;;21.50;50.80;99382.91;4943615;28;103335;-61
2022/07/10 09:20:29;;;;;;;2.00;1.10;;;;;;;22.11;48.71;99377.16;4943575;28;103258;-61
2022/07/10 09:22:58;;;;;;;2.60;1.38;;;;;;;21.00;51.26;99393.59;4942516;28;102668;-61
2022/07/10 09:25:34;;;;;;;3.63;1.30;;;;;;;21.49;49.59;99391.97;4948072;28;102896;-61
2022/07/10 09:28:05;;;;;;;5.38;1.30;;;;;;;21.24;48.92;99395.59;4942674;28;103296;-61
2022/07/10 09:30:36;;;;;;;1.77;1.13;;;;;;;20.43;53.11;99399.59;4943610;28;103208;-61
2022/07/10 09:33:24;;;;;;;2.55;1.15;;;;;;;19.98;51.86;99395.19;4940504;28;102795;-60
2022/07/10 09:36:07;;;;;;;2.27;1.20;;;;;;;22.47;47.85;99386.56;4941179;28;102867;-61
2022/07/10 09:38:53;;;;;;;2.33;1.00;;;;;;;23.66;46.02;99390.13;4942760;28;104007;-61
2022/07/10 09:41:32;;;;;;;2.83;1.10;;;;;;;22.75;47.43;99388.91;4940039;28;103288;-60
2022/07/10 09:44:02;;;;;;;3.27;1.90;;;;;;;21.03;50.11;99401.31;4926628;28;102788;-61
2022/07/10 09:46:34;;;;;;;3.03;1.50;;;;;;;22.60;49.31;99390.59;4943914;28;102604;-61
2022/07/10 09:49:05;;;;;;;2.00;1.30;;;;;;;21.04;51.07;99403.03;4943878;28;103315;-61
2022/07/10 09:51:37;;;;;;;2.70;1.30;;;;;;;21.78;49.53;99391.56;4941655;28;103213;-61
2022/07/10 09:54:14;;;;;;;2.80;1.23;;;;;;;21.53;49.89;99392.50;4943481;28;102692;-60
2022/07/10 09:56:44;;;;;;;2.60;1.40;;;;;;;21.30;50.56;99395.78;4926984;28;104631;-61
2022/07/10 09:59:14;;;;;;;2.78;1.35;;;;;;;20.64;51.50;99394.72;4943199;28;103308;-61
2022/07/10 10:01:46;;;;;;;4.00;1.30;;;;;;;19.78;50.94;99404.34;4942586;28;102973;-60
2022/07/10 10:04:17;;;;;;;2.35;1.10;;;;;;;20.89;49.81;99393.00;4940958;28;102920;-60
2022/07/10 10:06:47;;;;;;;3.00;1.00;;;;;;;21.46;49.58;99383.41;4939705;28;102748;-62
2022/07/10 10:09:23;;;;;;;2.38;1.30;;;;;;;21.65;50.75;99383.94;4925186;28;104456;-62
2022/07/10 10:11:57;;;;;;;2.83;1.50;;;;;;;20.32;51.04;99389.97;4943942;28;103176;-60
2022/07/10 10:14:27;;;;;;;3.00;1.10;;;;;;;20.02;51.03;99387.66;4921345;28;102815;-60
2022/07/10 10:16:57;;;;;;;3.00;1.40;;;;;;;20.47;50.55;99390.22;4941682;28;103259;-62
2022/07/10 10:22:19;;;;;;;2.73;1.10;;;;;;;22.35;47.60;99379.84;4938741;28;103207;-60
2022/07/10 10:24:47;;;;;;;3.05;1.13;;;;;;;21.86;47.78;99380.81;4940134;28;102940;-62
2022/07/10 10:27:16;;;;;;;2.45;1.20;;;;;;;21.79;48.71;99377.09;4925026;28;103489;-61
2022/07/10 10:29:46;;;;;;;3.72;1.33;;;;;;;21.18;49.65;99375.59;4933668;28;103273;-62
2022/07/10 10:32:16;;;;;;;2.55;1.27;;;;;;;21.90;48.40;99371.41;4920340;28;103475;-62
2022/07/10 10:34:49;;;;;;;5.18;1.60;;;;;;;21.85;48.69;99371.06;4917123;28;102846;-62
2022/07/10 10:37:38;;;;;;;3.10;1.20;;;;;;;22.01;48.51;99363.03;4933496;28;103224;-62
2022/07/10 10:40:08;;;;;;;3.03;1.20;;;;;;;22.55;46.57;99364.16;4931160;28;103284;-62
2022/07/10 10:42:38;;;;;;;1.65;1.10;;;;;;;22.67;47.83;99364.69;4932325;28;103474;-62
2022/07/10 10:45:39;;;;;;;1.70;1.02;;;;;;;23.79;46.17;99349.06;4908033;28;102919;-62
2022/07/10 10:48:10;;;;;;;3.22;1.30;;;;;;;23.82;45.27;99357.63;4871733;28;102865;-62
2022/07/10 10:50:57;;;;;;;2.03;1.20;;;;;;;23.14;45.09;99362.84;4868479;28;103451;-60
2022/07/10 10:53:27;;;;;;;2.07;1.17;;;;;;;22.67;46.82;99367.38;4906019;28;103271;-61
2022/07/10 10:56:26;;;;;;;3.10;1.30;;;;;;;21.10;49.33;99362.13;4917756;28;103039;-60
2022/07/10 10:58:54;;;;;;;1.77;1.10;;;;;;;22.22;48.18;99366.06;4931868;28;103202;-61
2022/07/10 11:01:32;;;;;;;3.67;1.20;;;;;;;22.16;46.82;99361.34;4933911;28;103416;-61
2022/07/10 11:04:19;;;;;;;2.58;1.40;;;;;;;22.09;46.99;99365.72;4928947;28;103183;-60
2022/07/10 11:06:50;;;;;;;2.73;1.23;;;;;;;23.21;45.87;99357.63;4910205;28;103999;-61
2022/07/10 11:09:26;;;;;;;2.97;1.40;;;;;;;21.98;46.47;99365.22;4935119;28;103233;-61
2022/07/10 11:12:03;;;;;;;3.38;1.30;;;;;;;20.90;48.85;99366.00;4936614;28;103315;-60
2022/07/10 11:14:31;;;;;;;2.55;1.48;;;;;;;23.00;46.36;99350.13;4936553;28;103323;-62
2022/07/10 11:17:00;;;;;;;2.15;1.20;;;;;;;24.05;45.85;99352.25;4933472;28;103018;-62
2022/07/10 11:19:32;;;;;;;3.67;1.20;;;;;;;23.72;43.83;99361.59;4937008;28;103951;-63
2022/07/10 11:22:47;;;;;;;2.80;1.25;;;;;;;23.06;45.41;99352.97;4919678;28;103141;-62
2022/07/10 11:25:35;;;;;;;3.30;1.00;;;;;;;23.47;45.25;99353.63;4916353;28;103277;-59
2022/07/10 11:28:08;;;;;;;3.73;1.30;;;;;;;25.08;42.43;99355.97;4907514;28;103330;-60
2022/07/10 11:30:51;;;;;;;2.40;1.00;;;;;;;25.07;40.76;99348.88;4933870;28;104386;-59
2022/07/10 11:33:20;;;;;;;2.70;1.02;;;;;;;24.50;41.15;99338.72;4920152;28;103356;-63
2022/07/10 11:35:51;;;;;;;1.88;0.98;;;;;;;24.01;42.64;99350.91;4922281;28;103314;-63
2022/07/10 11:38:21;;;;;;;2.03;1.00;;;;;;;23.49;42.32;99340.00;4932974;28;103054;-63
2022/07/10 11:40:49;;;;;;;2.47;1.00;;;;;;;23.48;42.09;99339.13;4938551;28;103094;-63
2022/07/10 11:43:19;;;;;;;2.55;1.02;;;;;;;21.99;44.55;99348.91;4918180;28;103315;-63
2022/07/10 11:45:47;;;;;;;3.38;1.00;;;;;;;22.34;45.78;99343.16;4932254;28;102982;-63
2022/07/10 11:48:18;;;;;;;2.63;1.17;;;;;;;22.02;44.14;99359.31;4934580;28;102724;-63
2022/07/10 11:50:47;;;;;;;2.80;1.40;;;;;;;22.28;43.61;99348.41;4914380;28;104088;-63